createdAt,value
2018-10-02T14:13:37.220Z,9.60
2018-10-02T14:16:07.404Z,9.63
2018-10-02T14:18:36.543Z,11.73
2018-10-02T14:21:05.685Z,12.67
2018-10-02T14:23:35.941Z,12.80
2018-10-02T14:26:04.803Z,12.23
2018-10-02T14:28:35.145Z,12.50
2018-10-02T14:31:04.077Z,13.30
2018-10-02T14:33:32.944Z,14.63
2018-10-02T14:36:01.758Z,15.17
2018-10-02T14:38:30.495Z,14.83
2018-10-02T14:40:59.245Z,14.47
2018-10-02T14:43:28.021Z,15.27
2018-10-02T14:45:56.414Z,15.43
2018-10-02T14:48:25.752Z,14.17
2018-10-02T14:50:54.598Z,14.20
2018-10-02T14:53:23.361Z,15.00
2018-10-02T14:55:52.307Z,14.67
2018-10-02T14:58:21.133Z,14.97
2018-10-02T15:00:50.297Z,16.00
2018-10-02T15:03:19.085Z,15.90
2018-10-02T15:05:47.861Z,14.40
2018-10-02T15:08:16.570Z,15.70
2018-10-02T15:10:45.479Z,15.43
2018-10-02T15:13:14.612Z,14.97
2018-10-02T15:15:43.440Z,13.30
2018-10-02T15:18:12.388Z,13.90
2018-10-02T15:20:41.139Z,14.10
2018-10-02T15:23:09.981Z,13.60
2018-10-02T15:25:38.800Z,13.30
2018-10-02T15:28:07.629Z,13.00
2018-10-02T15:30:36.438Z,13.57
2018-10-02T15:33:05.169Z,12.53
2018-10-02T15:35:33.913Z,12.97
2018-10-02T15:38:02.770Z,13.47
2018-10-02T15:40:32.696Z,13.07
2018-10-02T15:43:01.449Z,13.67
2018-10-02T15:45:30.225Z,12.60
2018-10-02T15:47:58.968Z,13.33
2018-10-02T15:50:28.009Z,12.93
2018-10-02T15:52:56.851Z,11.80
2018-10-02T15:55:25.618Z,11.10
2018-10-02T15:57:54.553Z,11.43
2018-10-02T16:00:23.372Z,12.03
2018-10-02T16:02:52.263Z,11.70
2018-10-02T16:05:20.713Z,11.90
2018-10-02T16:07:49.442Z,11.90
2018-10-02T16:10:18.162Z,10.70
2018-10-02T16:12:46.864Z,11.33
2018-10-02T16:15:15.664Z,12.00
2018-10-02T16:17:44.467Z,10.83
2018-10-02T16:20:13.197Z,10.73
2018-10-02T16:22:41.937Z,10.50
2018-10-02T16:25:10.696Z,10.40
2018-10-02T16:27:39.588Z,10.90
2018-10-02T16:30:08.420Z,10.07
2018-10-02T16:32:37.132Z,9.70
2018-10-02T16:35:05.838Z,10.17
2018-10-02T16:37:34.523Z,9.90
2018-10-02T16:40:03.286Z,9.37
2018-10-02T16:42:32.016Z,9.47
2018-10-02T16:45:00.867Z,9.23
2018-10-02T16:47:29.594Z,8.67
2018-10-02T16:49:58.314Z,8.40
2018-10-02T16:52:26.994Z,9.03
2018-10-02T16:54:55.739Z,7.67
2018-10-02T16:57:24.439Z,8.17
2018-10-02T16:59:53.224Z,6.83
2018-10-02T17:02:22.153Z,6.73
2018-10-02T17:04:51.053Z,6.27
2018-10-02T17:07:19.839Z,6.10
2018-10-02T17:09:48.655Z,5.37
2018-10-02T17:12:17.340Z,4.23
2018-10-02T17:14:46.077Z,4.60
2018-10-02T17:17:14.792Z,4.07
2018-10-02T17:19:43.544Z,4.00
2018-10-02T17:22:12.228Z,2.90
2018-10-02T17:24:40.954Z,3.37
2018-10-02T17:27:09.693Z,3.17
2018-10-02T17:29:38.499Z,2.90
2018-10-02T17:32:07.358Z,2.93
2018-10-02T17:34:36.161Z,3.30
2018-10-02T17:37:04.884Z,3.17
2018-10-02T17:39:33.579Z,3.43
2018-10-02T17:42:02.313Z,3.77
2018-10-02T17:44:31.073Z,3.60
2018-10-02T17:46:59.792Z,3.47
2018-10-02T17:49:28.548Z,3.97
2018-10-02T17:51:57.300Z,3.00
2018-10-02T17:54:26.049Z,3.57
2018-10-02T17:56:54.760Z,3.13
2018-10-02T17:59:23.070Z,2.77
2018-10-02T18:01:51.819Z,2.67
2018-10-02T18:04:20.614Z,2.23
2018-10-02T18:06:49.409Z,2.70
2018-10-02T18:09:18.173Z,2.80
2018-10-02T18:11:46.939Z,4.03
2018-10-02T18:14:15.829Z,2.10
2018-10-02T18:16:44.560Z,2.67
2018-10-02T18:19:13.385Z,3.00
2018-10-02T18:21:42.127Z,3.23
2018-10-02T18:24:17.432Z,2.10
2018-10-02T18:26:46.213Z,2.27
2018-10-02T18:29:14.884Z,3.20
2018-10-02T18:31:43.608Z,2.70
2018-10-02T18:34:12.299Z,2.40
2018-10-02T18:36:41.029Z,2.70
2018-10-02T18:39:09.858Z,3.77
2018-10-02T18:41:38.679Z,3.03
2018-10-02T18:44:07.631Z,2.50
2018-10-02T18:46:36.912Z,2.73
2018-10-02T18:49:06.186Z,2.57
2018-10-02T18:51:34.976Z,2.73
2018-10-02T18:54:03.803Z,2.57
2018-10-02T18:56:32.694Z,2.53
2018-10-02T18:59:01.512Z,3.60
2018-10-02T19:01:29.933Z,2.93
2018-10-02T19:03:58.848Z,2.60
2018-10-02T19:06:27.687Z,2.40
2018-10-02T19:09:01.711Z,2.27
2018-10-02T19:11:35.561Z,2.80
2018-10-02T19:14:04.385Z,2.83
2018-10-02T19:16:34.599Z,3.00
2018-10-02T19:19:03.523Z,2.60
2018-10-02T19:21:32.290Z,3.07
2018-10-02T19:24:00.979Z,3.33
2018-10-02T19:26:30.083Z,2.87
2018-10-02T19:28:58.735Z,2.93
2018-10-02T19:31:32.771Z,2.70
2018-10-02T19:34:01.800Z,2.87
2018-10-02T19:36:30.644Z,2.77
2018-10-02T19:39:03.609Z,2.93
2018-10-02T19:41:32.382Z,3.67
2018-10-02T19:44:01.319Z,3.27
2018-10-02T19:46:35.392Z,2.83
2018-10-02T19:49:04.636Z,2.47
2018-10-02T19:51:38.802Z,2.13
2018-10-02T19:54:07.600Z,3.00
2018-10-02T19:56:36.385Z,2.70
2018-10-02T19:59:05.148Z,2.47
2018-10-02T20:01:34.046Z,3.13
2018-10-02T20:04:02.821Z,2.50
2018-10-02T20:06:31.520Z,3.17
2018-10-02T20:09:00.255Z,2.27
2018-10-02T20:11:29.083Z,2.57
2018-10-02T20:13:57.742Z,3.00
2018-10-02T20:16:26.466Z,3.43
2018-10-02T20:18:55.196Z,3.10
2018-10-02T20:21:25.109Z,2.57
2018-10-02T20:23:53.726Z,2.80
2018-10-02T20:26:22.423Z,3.13
2018-10-02T20:28:51.290Z,3.57
2018-10-02T20:31:20.108Z,2.67
2018-10-02T20:33:48.955Z,3.87
2018-10-02T20:36:17.281Z,2.83
2018-10-02T20:38:45.930Z,3.47
2018-10-02T20:41:14.880Z,3.37
2018-10-02T20:43:43.635Z,3.07
2018-10-02T20:46:12.398Z,2.70
2018-10-02T20:48:40.783Z,3.63
2018-10-02T20:51:09.470Z,2.90
2018-10-02T20:53:37.959Z,3.13
2018-10-02T20:56:07.487Z,2.80
2018-10-02T20:58:36.263Z,3.27
2018-10-02T21:01:04.971Z,3.03
2018-10-02T21:03:33.733Z,4.07
2018-10-02T21:06:02.436Z,2.80
2018-10-02T21:08:31.337Z,2.60
2018-10-02T21:11:00.047Z,3.33
2018-10-02T21:13:28.730Z,3.17
2018-10-02T21:15:57.395Z,3.10
2018-10-02T21:18:27.045Z,3.73
2018-10-02T21:20:56.109Z,3.40
2018-10-02T21:23:25.289Z,3.00
2018-10-02T21:25:53.911Z,3.33
2018-10-02T21:28:22.703Z,2.87
2018-10-02T21:30:51.483Z,3.47
2018-10-02T21:33:20.224Z,3.20
2018-10-02T21:35:48.967Z,4.27
2018-10-02T21:38:17.502Z,5.13
2018-10-02T21:40:46.289Z,3.47
2018-10-02T21:43:15.045Z,3.87
2018-10-02T21:45:43.781Z,3.27
2018-10-02T21:48:12.472Z,2.90
2018-10-02T21:50:41.227Z,3.90
2018-10-02T21:53:09.926Z,3.47
2018-10-02T21:55:38.653Z,3.67
2018-10-02T21:58:07.316Z,3.50
2018-10-02T22:00:36.043Z,3.70
2018-10-02T22:03:04.887Z,4.27
2018-10-02T22:05:33.613Z,4.00
2018-10-02T22:08:02.266Z,4.13
2018-10-02T22:10:30.920Z,3.40
2018-10-02T22:12:59.698Z,3.43
2018-10-02T22:15:28.596Z,3.73
2018-10-02T22:17:57.295Z,3.23
2018-10-02T22:20:25.970Z,4.30
2018-10-02T22:22:55.185Z,3.53
2018-10-02T22:25:23.969Z,3.30
2018-10-02T22:27:52.833Z,3.90
2018-10-02T22:30:21.545Z,3.30
2018-10-02T22:32:50.328Z,3.33
2018-10-02T22:35:19.076Z,4.63
2018-10-02T22:37:47.747Z,3.73
2018-10-02T22:40:16.511Z,2.80
2018-10-02T22:42:45.320Z,4.20
2018-10-02T22:45:14.017Z,4.30
2018-10-02T22:47:42.766Z,4.03
2018-10-02T22:50:11.536Z,3.37
2018-10-02T22:52:40.284Z,3.27
2018-10-02T22:55:08.982Z,3.13
2018-10-02T22:57:37.735Z,4.13
2018-10-02T23:00:06.115Z,4.10
2018-10-02T23:02:34.880Z,3.30
2018-10-02T23:05:03.621Z,3.23
2018-10-02T23:07:32.311Z,3.30
2018-10-02T23:10:01.059Z,3.03
2018-10-02T23:12:29.746Z,3.67
2018-10-02T23:14:58.468Z,3.90
2018-10-02T23:17:27.185Z,3.57
2018-10-02T23:19:55.899Z,3.73
2018-10-02T23:22:24.629Z,3.40
2018-10-02T23:24:53.327Z,3.90
2018-10-02T23:27:22.030Z,3.80
2018-10-02T23:29:50.788Z,3.67
2018-10-02T23:32:19.622Z,3.57
2018-10-02T23:34:48.327Z,4.17
2018-10-02T23:37:17.045Z,3.97
2018-10-02T23:39:45.771Z,3.57
2018-10-02T23:42:14.462Z,3.87
2018-10-02T23:44:43.172Z,3.90
2018-10-02T23:47:11.888Z,4.00
2018-10-02T23:49:40.244Z,3.77
2018-10-02T23:52:09.038Z,5.00
2018-10-02T23:54:37.712Z,3.67
2018-10-02T23:57:06.532Z,3.90
2018-10-02T23:59:35.302Z,3.77
